Time;durP1;ratioP1;P1;durP2;ratioP2;P2;SDS_P1;SDS_P2;PMS_P1;PMS_P2;Temp;Humidity;BMP_temperature;BMP_pressure;BME280_temperature;BME280_humidity;BME280_pressure;Samples;Min_cycle;Max_cycle;Signal;HPM_P1;HPM_P2
2024/02/15 00:01:14;;;;;;;1.40;0.88;;;;;;;;;;5028614;28;20050;-64
2024/02/15 00:03:43;;;;;;;1.02;0.90;;;;;;;;;;5030049;28;20055;-61
2024/02/15 00:06:12;;;;;;;1.35;0.95;;;;;;;;;;5028383;28;20060;-63
2024/02/15 00:08:40;;;;;;;0.93;0.90;;;;;;;;;;5026011;28;20037;-64
2024/02/15 00:11:09;;;;;;;2.42;0.98;;;;;;;;;;5028638;28;20045;-62
2024/02/15 00:13:37;;;;;;;1.67;1.00;;;;;;;;;;5028843;28;20126;-61
2024/02/15 00:16:07;;;;;;;1.27;1.10;;;;;;;;;;5028710;28;20049;-65
2024/02/15 00:18:36;;;;;;;1.10;0.88;;;;;;;;;;5026579;28;20510;-62
2024/02/15 00:21:05;;;;;;;1.50;0.88;;;;;;;;;;5027901;28;20081;-61
2024/02/15 00:23:34;;;;;;;1.10;1.00;;;;;;;;;;5028309;28;20353;-62
2024/02/15 00:26:02;;;;;;;1.58;1.05;;;;;;;;;;5028611;28;20076;-61
2024/02/15 00:28:30;;;;;;;1.45;1.25;;;;;;;;;;5028173;28;20541;-61
2024/02/15 00:30:59;;;;;;;1.52;1.02;;;;;;;;;;5019394;28;20095;-63
2024/02/15 00:33:29;;;;;;;1.20;0.70;;;;;;;;;;5028313;28;20065;-63
2024/02/15 00:35:58;;;;;;;2.35;0.95;;;;;;;;;;5028447;28;20072;-62
2024/02/15 00:38:26;;;;;;;2.05;1.00;;;;;;;;;;5027951;28;20042;-62
2024/02/15 00:40:55;;;;;;;0.57;0.57;;;;;;;;;;5026067;28;20057;-63
2024/02/15 00:43:23;;;;;;;1.27;0.82;;;;;;;;;;5027847;28;20045;-62
2024/02/15 00:45:51;;;;;;;1.00;0.90;;;;;;;;;;5028510;28;20080;-64
2024/02/15 00:48:20;;;;;;;3.40;1.00;;;;;;;;;;5027829;28;20543;-63
2024/02/15 00:50:50;;;;;;;2.08;0.88;;;;;;;;;;5016249;28;20338;-61
2024/02/15 00:53:18;;;;;;;0.80;0.80;;;;;;;;;;5022755;28;20049;-61
2024/02/15 00:55:47;;;;;;;1.05;0.82;;;;;;;;;;5029160;28;20053;-64
2024/02/15 00:58:15;;;;;;;1.85;1.13;;;;;;;;;;5031644;28;20476;-63
2024/02/15 01:00:43;;;;;;;1.55;1.05;;;;;;;;;;5026579;28;20057;-62
2024/02/15 01:03:12;;;;;;;1.40;1.13;;;;;;;;;;5029004;28;20046;-61
2024/02/15 01:05:40;;;;;;;1.45;1.02;;;;;;;;;;5031942;28;20057;-61
2024/02/15 01:08:11;;;;;;;1.42;0.98;;;;;;;;;;5030890;28;20055;-62
2024/02/15 01:10:39;;;;;;;2.47;0.98;;;;;;;;;;5030213;28;20123;-62
2024/02/15 01:13:08;;;;;;;1.25;0.85;;;;;;;;;;5031533;28;20537;-63
2024/02/15 01:15:37;;;;;;;3.40;1.02;;;;;;;;;;5031475;28;20414;-61
2024/02/15 01:18:05;;;;;;;1.92;1.08;;;;;;;;;;5031594;28;20560;-61
2024/02/15 01:20:34;;;;;;;1.33;1.02;;;;;;;;;;5029535;28;20045;-61
2024/02/15 01:23:04;;;;;;;1.75;1.08;;;;;;;;;;5030931;28;20128;-63
2024/02/15 01:25:34;;;;;;;1.88;1.00;;;;;;;;;;5031368;28;20135;-65
2024/02/15 01:28:03;;;;;;;1.20;1.10;;;;;;;;;;5031067;28;20049;-61
2024/02/15 01:30:32;;;;;;;1.85;1.00;;;;;;;;;;5030146;28;20102;-61
2024/02/15 01:33:00;;;;;;;1.00;0.90;;;;;;;;;;5031352;28;20490;-62
2024/02/15 01:35:29;;;;;;;1.88;0.82;;;;;;;;;;5031489;28;20104;-62
2024/02/15 01:37:57;;;;;;;1.33;1.10;;;;;;;;;;5030312;28;20651;-63
2024/02/15 01:40:26;;;;;;;1.13;1.00;;;;;;;;;;5030823;28;20041;-60
2024/02/15 01:42:57;;;;;;;1.42;1.00;;;;;;;;;;5030679;28;20077;-61
2024/02/15 01:45:26;;;;;;;2.47;0.98;;;;;;;;;;5030509;28;20045;-63
2024/02/15 01:47:55;;;;;;;2.38;1.10;;;;;;;;;;5030399;28;20109;-63
2024/02/15 01:50:24;;;;;;;1.10;1.00;;;;;;;;;;5025968;28;20052;-64
2024/02/15 01:52:54;;;;;;;1.00;0.90;;;;;;;;;;5026119;28;20084;-62
2024/02/15 01:55:23;;;;;;;1.52;1.13;;;;;;;;;;5030487;28;20041;-61
2024/02/15 01:57:51;;;;;;;1.10;1.00;;;;;;;;;;5030767;28;20111;-63
2024/02/15 02:00:21;;;;;;;1.10;0.95;;;;;;;;;;5025135;28;20058;-62
2024/02/15 02:02:49;;;;;;;4.00;0.90;;;;;;;;;;5030826;28;20053;-63
2024/02/15 02:05:18;;;;;;;1.30;0.90;;;;;;;;;;5030148;28;20045;-65
2024/02/15 02:07:46;;;;;;;4.38;0.90;;;;;;;;;;5030230;28;20477;-62
2024/02/15 02:10:15;;;;;;;1.92;1.00;;;;;;;;;;5030362;28;20549;-63
2024/02/15 02:12:44;;;;;;;2.00;0.90;;;;;;;;;;5029748;28;20409;-62
2024/02/15 02:15:12;;;;;;;1.30;0.90;;;;;;;;;;5030529;28;20041;-62
2024/02/15 02:17:42;;;;;;;1.45;0.90;;;;;;;;;;5030306;28;20253;-61
2024/02/15 02:20:13;;;;;;;1.60;1.02;;;;;;;;;;5028880;28;20065;-62
2024/02/15 02:22:45;;;;;;;1.50;0.98;;;;;;;;;;5029300;28;20088;-62
2024/02/15 02:25:15;;;;;;;1.33;0.80;;;;;;;;;;5030024;28;20053;-62
2024/02/15 02:27:43;;;;;;;1.13;0.90;;;;;;;;;;5030214;28;20107;-62
2024/02/15 02:30:17;;;;;;;1.48;0.90;;;;;;;;;;5029969;28;20137;-61
2024/02/15 02:32:46;;;;;;;1.73;1.10;;;;;;;;;;5029849;28;20049;-62
2024/02/15 02:35:15;;;;;;;1.77;1.00;;;;;;;;;;5028431;28;20112;-62
2024/02/15 02:37:45;;;;;;;1.92;1.20;;;;;;;;;;5029047;28;20049;-62
2024/02/15 02:40:14;;;;;;;1.25;0.95;;;;;;;;;;5028786;28;20046;-63
2024/02/15 02:42:50;;;;;;;1.63;1.00;;;;;;;;;;5030260;28;20053;-61
2024/02/15 02:45:19;;;;;;;0.98;0.85;;;;;;;;;;5030016;28;20122;-63
2024/02/15 02:47:48;;;;;;;1.08;0.95;;;;;;;;;;5027265;28;20060;-64
2024/02/15 02:50:21;;;;;;;1.10;0.98;;;;;;;;;;5029353;28;20054;-62
2024/02/15 02:52:49;;;;;;;1.40;1.05;;;;;;;;;;5028610;28;20088;-62
2024/02/15 02:55:19;;;;;;;1.45;1.13;;;;;;;;;;5029676;28;20037;-61
2024/02/15 02:57:47;;;;;;;1.35;0.90;;;;;;;;;;5029579;28;20433;-61
2024/02/15 03:00:16;;;;;;;2.20;1.15;;;;;;;;;;5028575;28;20049;-62
2024/02/15 03:02:45;;;;;;;1.27;0.98;;;;;;;;;;5024025;28;20092;-61
2024/02/15 03:05:14;;;;;;;1.98;1.33;;;;;;;;;;5022767;28;20570;-63
2024/02/15 03:07:44;;;;;;;1.08;0.88;;;;;;;;;;5027186;28;20117;-63
2024/02/15 03:10:13;;;;;;;2.20;1.02;;;;;;;;;;5028711;28;20045;-62
2024/02/15 03:12:46;;;;;;;2.03;1.05;;;;;;;;;;5028313;28;20046;-64
2024/02/15 03:15:17;;;;;;;0.95;0.95;;;;;;;;;;5029122;28;20041;-62
2024/02/15 03:17:48;;;;;;;1.50;1.02;;;;;;;;;;5028916;28;20041;-62
2024/02/15 03:20:21;;;;;;;1.95;1.05;;;;;;;;;;5027972;28;20058;-61
2024/02/15 03:22:54;;;;;;;1.58;1.15;;;;;;;;;;5028474;28;20053;-64
2024/02/15 03:25:23;;;;;;;1.00;0.90;;;;;;;;;;5028732;28;20037;-62
2024/02/15 03:27:55;;;;;;;1.33;1.00;;;;;;;;;;5028484;28;20064;-63
2024/02/15 03:30:24;;;;;;;2.47;1.13;;;;;;;;;;5029002;28;20134;-61
2024/02/15 03:32:53;;;;;;;1.92;1.00;;;;;;;;;;5028615;28;20041;-61
2024/02/15 03:35:23;;;;;;;1.40;1.08;;;;;;;;;;5029204;28;20104;-63
2024/02/15 03:37:52;;;;;;;1.83;1.30;;;;;;;;;;5028219;28;20574;-65
2024/02/15 03:40:21;;;;;;;0.80;0.80;;;;;;;;;;5028591;28;20065;-62
2024/02/15 03:42:50;;;;;;;1.90;1.20;;;;;;;;;;5028884;28;20049;-61
2024/02/15 03:45:20;;;;;;;1.50;1.00;;;;;;;;;;5029923;28;20057;-62
2024/02/15 03:47:49;;;;;;;1.10;0.90;;;;;;;;;;5029596;28;20080;-62
2024/02/15 03:50:20;;;;;;;2.40;0.82;;;;;;;;;;5029166;28;20076;-62
2024/02/15 03:52:48;;;;;;;2.10;0.88;;;;;;;;;;5027247;28;20498;-62
2024/02/15 03:55:17;;;;;;;1.10;0.95;;;;;;;;;;5029650;28;20136;-60
2024/02/15 03:57:46;;;;;;;2.30;1.20;;;;;;;;;;5029772;28;20045;-61
2024/02/15 04:00:20;;;;;;;1.55;0.98;;;;;;;;;;5021026;28;20372;-62
2024/02/15 04:02:49;;;;;;;;;;;;;;;;;;5029019;28;20060;-62
2024/02/15 04:05:21;;;;;;;1.80;1.20;;;;;;;;;;5028856;28;20086;-60
2024/02/15 04:07:50;;;;;;;3.47;1.10;;;;;;;;;;5027615;28;20046;-62
2024/02/15 04:10:19;;;;;;;1.48;1.30;;;;;;;;;;5028572;28;20414;-61
2024/02/15 04:12:47;;;;;;;1.48;1.00;;;;;;;;;;5026871;28;20037;-61
2024/02/15 04:15:17;;;;;;;2.22;1.40;;;;;;;;;;5028622;28;20041;-63
2024/02/15 04:17:46;;;;;;;1.00;0.80;;;;;;;;;;5028252;28;20052;-61
2024/02/15 04:20:17;;;;;;;1.33;1.20;;;;;;;;;;5028982;28;20049;-62
2024/02/15 04:22:49;;;;;;;2.03;0.90;;;;;;;;;;5023912;28;20051;-63
2024/02/15 04:25:20;;;;;;;1.20;0.90;;;;;;;;;;5024995;28;20049;-66
2024/02/15 04:27:49;;;;;;;1.13;0.90;;;;;;;;;;5027259;28;20234;-64
2024/02/15 04:30:17;;;;;;;6.85;1.40;;;;;;;;;;5029873;28;20061;-62
2024/02/15 04:32:46;;;;;;;3.17;1.20;;;;;;;;;;5032621;28;20083;-61
2024/02/15 04:35:15;;;;;;;1.85;0.95;;;;;;;;;;5030597;28;20498;-62
2024/02/15 04:37:46;;;;;;;2.70;1.10;;;;;;;;;;5031678;28;20133;-62
2024/02/15 04:40:18;;;;;;;0.90;0.90;;;;;;;;;;5031504;28;20525;-62
2024/02/15 04:42:47;;;;;;;1.45;1.00;;;;;;;;;;5031432;28;20072;-62
2024/02/15 04:45:15;;;;;;;1.33;0.90;;;;;;;;;;5032340;28;20128;-63
2024/02/15 04:47:45;;;;;;;1.20;1.02;;;;;;;;;;5031739;28;20049;-61
2024/02/15 04:50:18;;;;;;;1.30;1.10;;;;;;;;;;5030481;28;20056;-63
2024/02/15 04:52:49;;;;;;;1.48;0.90;;;;;;;;;;5029872;28;20505;-63
2024/02/15 04:55:19;;;;;;;1.38;0.90;;;;;;;;;;5032031;28;20140;-62
2024/02/15 04:57:48;;;;;;;1.40;1.05;;;;;;;;;;5032213;28;20057;-63
2024/02/15 05:00:20;;;;;;;2.22;1.20;;;;;;;;;;5029786;28;20497;-62
2024/02/15 05:02:49;;;;;;;2.53;1.10;;;;;;;;;;5031028;28;20064;-63
2024/02/15 05:05:18;;;;;;;2.45;1.25;;;;;;;;;;5031015;28;20075;-63
2024/02/15 05:07:48;;;;;;;2.33;1.30;;;;;;;;;;5030290;28;20486;-61
2024/02/15 05:10:17;;;;;;;3.10;1.60;;;;;;;;;;5024939;28;20037;-65
2024/02/15 05:12:48;;;;;;;2.88;1.30;;;;;;;;;;5031268;28;20049;-62
2024/02/15 05:15:17;;;;;;;1.85;1.13;;;;;;;;;;5027643;28;20048;-63
2024/02/15 05:17:47;;;;;;;2.58;1.33;;;;;;;;;;5028660;28;20048;-61
2024/02/15 05:20:17;;;;;;;2.00;1.13;;;;;;;;;;5030999;28;20041;-61
2024/02/15 05:22:45;;;;;;;2.20;1.23;;;;;;;;;;5030505;28;20073;-63
2024/02/15 05:25:22;;;;;;;1.13;1.00;;;;;;;;;;5030940;28;20126;-64
2024/02/15 05:27:54;;;;;;;1.63;1.00;;;;;;;;;;5030990;28;20406;-63
2024/02/15 05:30:24;;;;;;;1.45;1.10;;;;;;;;;;5030610;28;20133;-65
2024/02/15 05:32:53;;;;;;;1.15;0.95;;;;;;;;;;5031575;28;20144;-60
2024/02/15 05:35:24;;;;;;;1.27;1.17;;;;;;;;;;5030438;28;20111;-63
2024/02/15 05:37:53;;;;;;;3.63;1.10;;;;;;;;;;5027104;28;20127;-62
2024/02/15 05:40:22;;;;;;;2.17;1.10;;;;;;;;;;5029503;28;20053;-61
2024/02/15 05:42:56;;;;;;;3.08;0.95;;;;;;;;;;5027434;28;20049;-61
2024/02/15 05:45:34;;;;;;;2.00;1.10;;;;;;;;;;5030635;28;20045;-61
2024/02/15 05:48:06;;;;;;;1.20;1.00;;;;;;;;;;5027784;28;20297;-62
2024/02/15 05:50:34;;;;;;;2.58;1.27;;;;;;;;;;5024561;28;20141;-61
2024/02/15 05:53:03;;;;;;;4.10;1.50;;;;;;;;;;5020102;28;20165;-60
2024/02/15 05:55:34;;;;;;;3.28;1.10;;;;;;;;;;5018921;28;20100;-62
2024/02/15 05:58:03;;;;;;;1.70;1.02;;;;;;;;;;5030582;28;20049;-61
2024/02/15 06:00:34;;;;;;;1.40;1.00;;;;;;;;;;5028760;28;20057;-61
2024/02/15 06:03:03;;;;;;;2.65;1.17;;;;;;;;;;5020615;28;20115;-61
2024/02/15 06:05:32;;;;;;;6.05;1.30;;;;;;;;;;5030278;28;21055;-61
2024/02/15 06:08:00;;;;;;;2.72;1.02;;;;;;;;;;5029708;28;20128;-61
2024/02/15 06:10:30;;;;;;;2.95;1.40;;;;;;;;;;5026213;28;20045;-61
2024/02/15 06:12:59;;;;;;;1.25;1.15;;;;;;;;;;5027109;28;20045;-61
2024/02/15 06:15:27;;;;;;;2.67;1.30;;;;;;;;;;5027140;28;20053;-63
2024/02/15 06:17:57;;;;;;;1.05;0.95;;;;;;;;;;5026841;28;20128;-61
2024/02/15 06:20:29;;;;;;;1.70;1.15;;;;;;;;;;5028859;28;20056;-60
2024/02/15 06:22:57;;;;;;;2.85;0.90;;;;;;;;;;5026821;28;20049;-60
2024/02/15 06:25:25;;;;;;;2.08;1.30;;;;;;;;;;5027738;28;20077;-61
2024/02/15 06:27:59;;;;;;;5.18;1.42;;;;;;;;;;5027016;28;20045;-61
2024/02/15 06:41:37;;;;;;;1.25;0.98;;;;;;;;;;5027229;28;20049;-59
2024/02/15 06:44:06;;;;;;;2.38;1.23;;;;;;;;;;5026841;28;20053;-61
2024/02/15 06:46:34;;;;;;;1.33;1.10;;;;;;;;;;5028283;28;20167;-62
2024/02/15 06:49:04;;;;;;;3.53;1.02;;;;;;;;;;5027004;28;20073;-61
2024/02/15 06:51:34;;;;;;;1.15;1.00;;;;;;;;;;5029417;28;20128;-60
2024/02/15 06:54:02;;;;;;;4.03;1.05;;;;;;;;;;5027308;28;20080;-62
2024/02/15 06:56:31;;;;;;;5.32;1.30;;;;;;;;;;5029445;28;20061;-61
2024/02/15 06:59:00;;;;;;;1.58;1.10;;;;;;;;;;5028483;28;20099;-62
2024/02/15 07:01:28;;;;;;;3.53;1.10;;;;;;;;;;5028195;28;20056;-62
2024/02/15 07:03:56;;;;;;;2.28;1.27;;;;;;;;;;5020050;28;20410;-62
2024/02/15 07:06:28;;;;;;;1.80;1.10;;;;;;;;;;5029105;28;20061;-62
2024/02/15 07:08:57;;;;;;;1.10;0.90;;;;;;;;;;5028109;28;20118;-63
2024/02/15 07:11:26;;;;;;;3.00;1.08;;;;;;;;;;5029113;28;20049;-63
2024/02/15 07:13:55;;;;;;;1.20;1.10;;;;;;;;;;5030111;28;20135;-60
2024/02/15 07:16:23;;;;;;;1.35;1.02;;;;;;;;;;5029782;28;20049;-61
2024/02/15 07:18:52;;;;;;;1.20;1.00;;;;;;;;;;5029446;28;20107;-61
2024/02/15 07:21:25;;;;;;;2.92;1.25;;;;;;;;;;5028995;28;20045;-64
2024/02/15 07:23:55;;;;;;;1.70;1.10;;;;;;;;;;5022582;28;20049;-65
2024/02/15 07:26:25;;;;;;;1.58;1.20;;;;;;;;;;5016419;28;20049;-61
2024/02/15 07:28:54;;;;;;;1.30;1.00;;;;;;;;;;5031253;28;20128;-61
2024/02/15 07:31:22;;;;;;;1.10;1.00;;;;;;;;;;5025216;28;20049;-61
2024/02/15 07:33:53;;;;;;;2.10;1.10;;;;;;;;;;5029520;28;20050;-63
2024/02/15 07:36:22;;;;;;;1.25;1.02;;;;;;;;;;5027750;28;20076;-61
2024/02/15 07:38:51;;;;;;;2.35;1.42;;;;;;;;;;5026731;28;20128;-58
2024/02/15 07:41:22;;;;;;;3.10;1.60;;;;;;;;;;5027558;28;20048;-62
2024/02/15 07:43:52;;;;;;;2.70;1.10;;;;;;;;;;5028077;28;20045;-59
2024/02/15 07:46:21;;;;;;;1.40;1.00;;;;;;;;;;5018020;28;20049;-62
2024/02/15 07:48:50;;;;;;;3.35;1.77;;;;;;;;;;5027022;28;20060;-63
2024/02/15 07:51:19;;;;;;;2.30;1.00;;;;;;;;;;5023758;28;20133;-64
2024/02/15 07:53:48;;;;;;;1.45;1.30;;;;;;;;;;5017093;28;20047;-61
2024/02/15 07:56:17;;;;;;;3.58;1.20;;;;;;;;;;5027544;28;20053;-62
2024/02/15 07:58:48;;;;;;;1.85;1.00;;;;;;;;;;5024935;28;20465;-62
2024/02/15 08:01:21;;;;;;;;;;;;;;;;;;5027954;28;20055;-60
2024/02/15 08:03:52;;;;;;;2.85;1.15;;;;;;;;;;5027911;28;19924;-61
2024/02/15 08:06:24;;;;;;;1.58;1.13;;;;;;;;;;5027063;28;20049;-63
2024/02/15 08:08:54;;;;;;;2.05;1.10;;;;;;;;;;5026605;28;20276;-62
2024/02/15 08:11:23;;;;;;;1.92;1.00;;;;;;;;;;5026980;28;20495;-64
2024/02/15 08:13:56;;;;;;;1.85;1.02;;;;;;;;;;5027899;28;20052;-62
2024/02/15 08:16:27;;;;;;;2.13;1.13;;;;;;;;;;5027645;28;20103;-62
2024/02/15 08:18:56;;;;;;;0.95;0.85;;;;;;;;;;5027175;28;20089;-63
2024/02/15 08:21:29;;;;;;;1.80;0.90;;;;;;;;;;5027076;28;20052;-62
2024/02/15 08:23:58;;;;;;;4.10;1.08;;;;;;;;;;5027230;28;20078;-62
2024/02/15 08:26:29;;;;;;;0.80;0.80;;;;;;;;;;5027823;28;20071;-63
2024/02/15 08:28:59;;;;;;;1.20;1.00;;;;;;;;;;5027550;28;20060;-61
2024/02/15 08:31:28;;;;;;;1.00;0.90;;;;;;;;;;5026741;28;20053;-63
2024/02/15 08:33:56;;;;;;;3.83;1.10;;;;;;;;;;5025820;28;20054;-64
2024/02/15 08:36:25;;;;;;;1.20;0.98;;;;;;;;;;5025433;28;20103;-62
2024/02/15 08:38:53;;;;;;;1.00;0.80;;;;;;;;;;5026062;28;20060;-66
2024/02/15 08:41:26;;;;;;;4.20;1.40;;;;;;;;;;5019469;28;20056;-61
2024/02/15 08:43:56;;;;;;;1.73;0.95;;;;;;;;;;5027199;28;20045;-62
2024/02/15 08:46:27;;;;;;;3.38;1.10;;;;;;;;;;5027260;28;20085;-62
2024/02/15 08:48:55;;;;;;;2.40;1.25;;;;;;;;;;5026542;28;20053;-63
2024/02/15 08:51:24;;;;;;;2.03;0.80;;;;;;;;;;5027669;28;20045;-62
2024/02/15 08:53:53;;;;;;;1.10;0.82;;;;;;;;;;5026483;28;20049;-61
2024/02/15 08:56:23;;;;;;;1.27;0.88;;;;;;;;;;5025714;28;20049;-62
2024/02/15 08:58:51;;;;;;;4.10;1.25;;;;;;;;;;5023997;28;20220;-64
2024/02/15 09:01:19;;;;;;;2.05;1.20;;;;;;;;;;5026242;28;20493;-65
2024/02/15 09:03:49;;;;;;;1.42;0.90;;;;;;;;;;5027383;28;20136;-63
2024/02/15 09:06:18;;;;;;;1.55;0.95;;;;;;;;;;5026476;28;20483;-61
2024/02/15 09:08:47;;;;;;;1.25;1.00;;;;;;;;;;5026450;28;20042;-64
2024/02/15 09:11:16;;;;;;;1.52;0.90;;;;;;;;;;5021480;28;20191;-63
2024/02/15 09:13:45;;;;;;;2.75;1.30;;;;;;;;;;5026946;28;20132;-62
2024/02/15 09:16:13;;;;;;;3.55;0.80;;;;;;;;;;5029406;28;20055;-62
2024/02/15 09:18:45;;;;;;;1.52;1.08;;;;;;;;;;5029615;28;20487;-62
2024/02/15 09:21:15;;;;;;;7.22;1.30;;;;;;;;;;5031460;28;20132;-63
2024/02/15 09:23:44;;;;;;;1.40;1.15;;;;;;;;;;5030320;28;20042;-62
2024/02/15 09:26:12;;;;;;;2.03;1.40;;;;;;;;;;5029569;28;20041;-61
2024/02/15 09:28:41;;;;;;;3.00;1.90;;;;;;;;;;5029973;28;20072;-62
2024/02/15 09:31:11;;;;;;;3.75;1.50;;;;;;;;;;5030087;28;20053;-63
2024/02/15 09:33:40;;;;;;;3.55;1.10;;;;;;;;;;5031059;28;20049;-64
2024/02/15 09:36:09;;;;;;;1.95;0.98;;;;;;;;;;5030131;28;20052;-63
2024/02/15 09:38:39;;;;;;;1.10;0.90;;;;;;;;;;5029769;28;20572;-62
2024/02/15 09:41:08;;;;;;;1.52;1.10;;;;;;;;;;5035323;28;20128;-62
2024/02/15 09:43:37;;;;;;;1.52;1.10;;;;;;;;;;5032904;28;20049;-62
2024/02/15 09:46:06;;;;;;;2.30;1.08;;;;;;;;;;5030652;28;20049;-63
2024/02/15 09:48:37;;;;;;;1.48;1.35;;;;;;;;;;5029689;28;20057;-63
2024/02/15 09:51:06;;;;;;;1.33;0.98;;;;;;;;;;5029660;28;20561;-62
2024/02/15 09:53:34;;;;;;;2.42;1.13;;;;;;;;;;5029221;28;20462;-62
2024/02/15 09:56:06;;;;;;;1.40;0.77;;;;;;;;;;5029271;28;20053;-64
2024/02/15 09:58:35;;;;;;;1.75;0.88;;;;;;;;;;5023175;28;20083;-63
2024/02/15 10:01:09;;;;;;;0.90;0.80;;;;;;;;;;5030222;28;20499;-63
2024/02/15 10:03:40;;;;;;;1.48;1.00;;;;;;;;;;5029796;28;20583;-63
2024/02/15 10:06:09;;;;;;;0.90;0.75;;;;;;;;;;5029572;28;20469;-64
2024/02/15 10:08:39;;;;;;;2.60;0.82;;;;;;;;;;5029131;28;20538;-64
2024/02/15 10:11:09;;;;;;;0.90;0.80;;;;;;;;;;5026142;28;20080;-65
2024/02/15 10:13:39;;;;;;;1.90;0.80;;;;;;;;;;5029551;28;20053;-63
2024/02/15 10:16:18;;;;;;;1.00;0.80;;;;;;;;;;5037318;28;20052;-64
2024/02/15 10:18:47;;;;;;;0.93;0.68;;;;;;;;;;5029479;28;20128;-62
2024/02/15 10:21:26;;;;;;;2.10;0.95;;;;;;;;;;5023246;28;20045;-63
2024/02/15 10:24:06;;;;;;;1.95;0.65;;;;;;;;;;5029189;28;20057;-65
2024/02/15 10:26:36;;;;;;;1.08;0.60;;;;;;;;;;5029583;28;20057;-62
2024/02/15 10:29:10;;;;;;;1.13;0.88;;;;;;;;;;5029204;28;20042;-65
2024/02/15 10:31:40;;;;;;;3.53;0.90;;;;;;;;;;5028984;28;20533;-64
2024/02/15 10:34:09;;;;;;;2.92;0.85;;;;;;;;;;5028339;28;20064;-63
2024/02/15 10:36:39;;;;;;;1.27;0.80;;;;;;;;;;5028815;28;20054;-63
2024/02/15 10:39:20;;;;;;;1.80;0.80;;;;;;;;;;5027683;28;20056;-62
2024/02/15 10:41:51;;;;;;;0.88;0.68;;;;;;;;;;5028585;28;20050;-63
2024/02/15 10:44:20;;;;;;;1.95;0.82;;;;;;;;;;5025915;28;20047;-65
2024/02/15 10:46:52;;;;;;;1.02;0.52;;;;;;;;;;5021422;28;20600;-62
2024/02/15 10:49:21;;;;;;;0.85;0.40;;;;;;;;;;5027785;28;20137;-63
2024/02/15 10:51:53;;;;;;;1.27;0.63;;;;;;;;;;5029865;28;20046;-62
2024/02/15 10:54:30;;;;;;;0.60;0.50;;;;;;;;;;5026361;28;20041;-63
2024/02/15 10:57:05;;;;;;;2.22;0.60;;;;;;;;;;5027331;28;20145;-64
2024/02/15 10:59:34;;;;;;;0.80;0.43;;;;;;;;;;5034017;28;20053;-63
2024/02/15 11:02:04;;;;;;;1.33;0.55;;;;;;;;;;5028728;28;20055;-63
2024/02/15 11:04:34;;;;;;;0.60;0.50;;;;;;;;;;5028646;28;20149;-65
2024/02/15 11:07:06;;;;;;;0.82;0.60;;;;;;;;;;5026430;28;20394;-67
2024/02/15 11:09:36;;;;;;;1.80;0.57;;;;;;;;;;5027968;28;20061;-63
2024/02/15 11:12:07;;;;;;;3.50;0.60;;;;;;;;;;5027267;28;20544;-63
2024/02/15 11:14:36;;;;;;;0.70;0.68;;;;;;;;;;5027973;28;20392;-63
2024/02/15 11:17:06;;;;;;;0.60;0.50;;;;;;;;;;5028358;28;20117;-65
2024/02/15 11:19:47;;;;;;;0.60;0.60;;;;;;;;;;5026651;28;20100;-63
2024/02/15 11:22:16;;;;;;;1.20;0.65;;;;;;;;;;5023391;28;20046;-66
2024/02/15 11:24:49;;;;;;;2.60;0.55;;;;;;;;;;5028192;28;20053;-63
2024/02/15 11:27:29;;;;;;;1.55;0.65;;;;;;;;;;5027763;28;20065;-66
2024/02/15 11:30:03;;;;;;;1.13;0.60;;;;;;;;;;5024519;28;20065;-64
2024/02/15 11:32:43;;;;;;;2.33;0.50;;;;;;;;;;5024885;28;20053;-64
2024/02/15 11:35:14;;;;;;;1.00;0.70;;;;;;;;;;5028374;28;20439;-61
2024/02/15 11:37:58;;;;;;;0.75;0.50;;;;;;;;;;5027155;28;20077;-66
2024/02/15 11:40:28;;;;;;;0.90;0.52;;;;;;;;;;5023399;28;20140;-64
2024/02/15 11:42:59;;;;;;;2.05;0.80;;;;;;;;;;5028949;28;20474;-62
2024/02/15 11:45:32;;;;;;;0.82;0.60;;;;;;;;;;5027984;28;20128;-64
2024/02/15 11:48:01;;;;;;;1.88;0.85;;;;;;;;;;5027659;28;20052;-66
2024/02/15 11:50:36;;;;;;;0.57;0.50;;;;;;;;;;5026897;28;20138;-65
2024/02/15 11:53:09;;;;;;;0.57;0.50;;;;;;;;;;5026952;28;20148;-65
2024/02/15 11:55:38;;;;;;;1.50;0.60;;;;;;;;;;5025747;28;20059;-66
2024/02/15 11:58:21;;;;;;;3.35;0.63;;;;;;;;;;5025550;28;20041;-64
2024/02/15 12:20:34;;;;;;;2.13;0.80;;;;;;;;;;5027110;28;20067;-63
2024/02/15 12:23:06;;;;;;;1.00;0.50;;;;;;;;;;5025545;28;20485;-65
2024/02/15 12:25:36;;;;;;;1.15;0.90;;;;;;;;;;5024719;28;20060;-65
2024/02/15 12:28:06;;;;;;;0.68;0.60;;;;;;;;;;5026659;28;20159;-64
2024/02/15 12:30:38;;;;;;;1.05;0.60;;;;;;;;;;5025666;28;20068;-63
2024/02/15 12:33:19;;;;;;;1.65;0.80;;;;;;;;;;5027407;28;20580;-63
2024/02/15 12:35:50;;;;;;;0.88;0.63;;;;;;;;;;5025934;28;20061;-64
2024/02/15 12:38:18;;;;;;;2.25;0.82;;;;;;;;;;5030041;28;20049;-67
2024/02/15 12:40:47;;;;;;;1.52;0.55;;;;;;;;;;5024131;28;20065;-65
2024/02/15 12:43:17;;;;;;;0.52;0.50;;;;;;;;;;5027293;28;20049;-66
2024/02/15 12:45:46;;;;;;;1.13;0.60;;;;;;;;;;5027640;28;20557;-65
2024/02/15 12:48:15;;;;;;;1.70;0.50;;;;;;;;;;5026816;28;20102;-66
2024/02/15 12:50:44;;;;;;;0.50;0.50;;;;;;;;;;5027315;28;20049;-65
2024/02/15 12:53:13;;;;;;;2.40;0.68;;;;;;;;;;5031718;28;20053;-64
2024/02/15 12:55:41;;;;;;;0.70;0.65;;;;;;;;;;5030945;28;20049;-63
2024/02/15 12:58:14;;;;;;;0.80;0.60;;;;;;;;;;5028918;28;20060;-66
2024/02/15 13:00:44;;;;;;;1.02;0.60;;;;;;;;;;5022995;28;20049;-68
2024/02/15 13:03:14;;;;;;;0.63;0.43;;;;;;;;;;5030685;28;20072;-65
2024/02/15 13:05:43;;;;;;;2.40;0.60;;;;;;;;;;5030694;28;20103;-63
2024/02/15 13:08:13;;;;;;;0.60;0.50;;;;;;;;;;5025747;28;20060;-65
2024/02/15 13:10:43;;;;;;;0.50;0.50;;;;;;;;;;5029409;28;20053;-65
2024/02/15 13:13:13;;;;;;;1.67;0.52;;;;;;;;;;5031146;28;20049;-66
2024/02/15 13:15:43;;;;;;;1.48;1.17;;;;;;;;;;5030595;28;20046;-66
2024/02/15 13:18:13;;;;;;;2.05;0.63;;;;;;;;;;5030409;28;20495;-63
2024/02/15 13:20:44;;;;;;;0.90;0.50;;;;;;;;;;5031021;28;20046;-67
2024/02/15 13:23:19;;;;;;;0.82;0.60;;;;;;;;;;5033949;28;20048;-63
2024/02/15 13:25:48;;;;;;;1.83;0.70;;;;;;;;;;5027869;28;20786;-66
2024/02/15 13:28:17;;;;;;;0.82;0.60;;;;;;;;;;5030682;28;20056;-63
2024/02/15 13:30:49;;;;;;;0.65;0.60;;;;;;;;;;5030938;28;20049;-63
2024/02/15 13:33:17;;;;;;;0.82;0.55;;;;;;;;;;5031866;28;20232;-64
2024/02/15 13:35:49;;;;;;;0.75;0.57;;;;;;;;;;5031017;28;20055;-64
2024/02/15 13:38:22;;;;;;;1.45;0.60;;;;;;;;;;5031262;28;20140;-63
2024/02/15 13:40:54;;;;;;;0.85;0.63;;;;;;;;;;5030507;28;20103;-64
2024/02/15 13:43:23;;;;;;;0.60;0.50;;;;;;;;;;5032413;28;20111;-69
2024/02/15 13:45:52;;;;;;;0.63;0.55;;;;;;;;;;5019071;28;20092;-66
2024/02/15 13:48:23;;;;;;;1.10;0.60;;;;;;;;;;5031077;28;20068;-63
2024/02/15 13:50:54;;;;;;;1.70;0.80;;;;;;;;;;5030909;28;20053;-65
2024/02/15 13:53:22;;;;;;;0.70;0.70;;;;;;;;;;5031697;28;20128;-63
2024/02/15 13:55:53;;;;;;;1.55;0.70;;;;;;;;;;5030943;28;20084;-65
2024/02/15 13:58:23;;;;;;;2.00;0.98;;;;;;;;;;5031314;28;20050;-64
2024/02/15 14:00:52;;;;;;;0.98;0.73;;;;;;;;;;5030744;28;20615;-66
2024/02/15 14:03:21;;;;;;;1.45;0.70;;;;;;;;;;5030954;28;20085;-64
2024/02/15 14:05:50;;;;;;;0.70;0.50;;;;;;;;;;5031581;28;20085;-65
2024/02/15 14:08:22;;;;;;;1.38;0.75;;;;;;;;;;5031608;28;20049;-64
2024/02/15 14:10:51;;;;;;;2.65;0.77;;;;;;;;;;5030291;28;20049;-65
2024/02/15 14:13:21;;;;;;;0.70;0.60;;;;;;;;;;5024744;28;20053;-64
2024/02/15 14:15:51;;;;;;;1.85;0.70;;;;;;;;;;5030801;28;20068;-64
2024/02/15 14:18:19;;;;;;;1.02;0.63;;;;;;;;;;5030865;28;20064;-62
2024/02/15 14:20:49;;;;;;;0.55;0.52;;;;;;;;;;5030555;28;20442;-63
2024/02/15 14:23:18;;;;;;;0.70;0.70;;;;;;;;;;5031095;28;20577;-65
2024/02/15 14:25:49;;;;;;;1.27;0.88;;;;;;;;;;5029772;28;20300;-64
2024/02/15 14:28:18;;;;;;;0.60;0.60;;;;;;;;;;5030014;28;20060;-65
2024/02/15 14:33:28;;;;;;;0.60;0.60;;;;;;;;;;4986656;28;20402;-65
2024/02/15 14:36:03;;;;;;;0.65;0.60;;;;;;;;;;5023201;28;20077;-66
2024/02/15 14:38:34;;;;;;;0.68;0.55;;;;;;;;;;5029820;28;20286;-64
2024/02/15 14:41:06;;;;;;;1.05;0.70;;;;;;;;;;5029926;28;20487;-62
2024/02/15 14:43:36;;;;;;;1.92;0.68;;;;;;;;;;5030873;28;20049;-64
2024/02/15 14:46:05;;;;;;;1.70;0.90;;;;;;;;;;5030424;28;20053;-62
2024/02/15 14:48:34;;;;;;;0.98;0.60;;;;;;;;;;5029706;28;20084;-63
2024/02/15 14:51:03;;;;;;;0.60;0.60;;;;;;;;;;5028973;28;20053;-62
2024/02/15 14:53:31;;;;;;;0.70;0.70;;;;;;;;;;5023977;28;20447;-63
2024/02/15 14:55:59;;;;;;;0.70;0.60;;;;;;;;;;5029731;28;20080;-63
2024/02/15 14:58:29;;;;;;;1.60;0.68;;;;;;;;;;5030083;28;20053;-64
2024/02/15 15:00:58;;;;;;;1.00;0.63;;;;;;;;;;5029009;28;20324;-66
2024/02/15 15:03:33;;;;;;;1.00;0.70;;;;;;;;;;5029819;28;20534;-65
2024/02/15 15:14:36;;;;;;;0.60;0.60;;;;;;;;;;4958182;28;20043;-63
2024/02/15 15:17:05;;;;;;;1.20;0.85;;;;;;;;;;5004339;28;20073;-64
2024/02/15 15:19:33;;;;;;;2.10;1.17;;;;;;;;;;5028952;28;20041;-66
2024/02/15 15:22:04;;;;;;;2.40;0.90;;;;;;;;;;5029145;28;20053;-64
2024/02/15 15:24:33;;;;;;;1.27;0.93;;;;;;;;;;5029673;28;20081;-63
2024/02/15 15:27:04;;;;;;;1.90;0.80;;;;;;;;;;5029786;28;20057;-63
2024/02/15 15:29:33;;;;;;;5.18;0.90;;;;;;;;;;5029118;28;20151;-64
2024/02/15 15:32:03;;;;;;;2.97;0.80;;;;;;;;;;5029376;28;20095;-65
2024/02/15 15:34:32;;;;;;;1.23;0.70;;;;;;;;;;5029550;28;20049;-66
2024/02/15 15:37:01;;;;;;;4.55;0.80;;;;;;;;;;5027292;28;20482;-64
2024/02/15 15:39:32;;;;;;;1.00;0.70;;;;;;;;;;5028680;28;20141;-64
2024/02/15 15:42:02;;;;;;;3.08;0.80;;;;;;;;;;5028302;28;20038;-67